Terminal Aerodrome Forecast
Issued by NWS Sioux Falls, SD

Home | Current Version | Previous Version | Graphics & Text | Print | Product List | Glossary Off
Versions: 1 2 3 4 5 6 7 8 9 10 11 12

398
FTUS43 KFSD 201724
TAFHON
TAF
KHON 201724Z 2018/2118 36008KT P6SM FEW250
     FM210400 11006KT P6SM SCT200
     FM210600 12007KT P6SM SCT150
     FM211200 12011KT P6SM BKN150
     FM211500 14015G23KT P6SM BKN200=

USA.gov is the U.S. government's official web portal to all federal, state and local government web resources and services.